createdAt,value
2022-11-30T00:01:35.494Z,99467.69
2022-11-30T00:04:03.373Z,99471.66
2022-11-30T00:06:31.431Z,99464.94
2022-11-30T00:09:00.842Z,99470.06
2022-11-30T00:11:29.806Z,99463.69
2022-11-30T00:14:00.283Z,99468.44
2022-11-30T00:16:28.379Z,99471.59
2022-11-30T00:18:56.726Z,99463.72
2022-11-30T00:21:26.140Z,99464.50
2022-11-30T00:23:54.274Z,99462.53
2022-11-30T00:26:23.456Z,99466.09
2022-11-30T00:28:51.728Z,99466.53
2022-11-30T00:31:21.041Z,99459.72
2022-11-30T00:33:49.065Z,99468.03
2022-11-30T00:36:19.004Z,99463.34
2022-11-30T00:38:47.750Z,99457.81
2022-11-30T00:41:16.318Z,99463.31
2022-11-30T00:43:45.940Z,99465.31
2022-11-30T00:46:13.883Z,99466.91
2022-11-30T00:48:42.496Z,99472.00
2022-11-30T00:51:12.168Z,99469.72
2022-11-30T00:53:40.999Z,99470.88
2022-11-30T00:56:09.968Z,99466.50
2022-11-30T00:58:37.897Z,99456.22
2022-11-30T01:01:07.842Z,99460.19
2022-11-30T01:03:37.340Z,99474.44
2022-11-30T01:06:05.575Z,99476.84
2022-11-30T01:08:33.925Z,99477.22
2022-11-30T01:11:07.734Z,99465.75
2022-11-30T01:13:35.606Z,99470.09
2022-11-30T01:16:09.429Z,99478.44
2022-11-30T01:18:39.419Z,99479.56
2022-11-30T01:21:08.681Z,99485.94
2022-11-30T01:23:37.033Z,99478.41
2022-11-30T01:26:05.276Z,99479.97
2022-11-30T01:28:33.408Z,99479.59
2022-11-30T01:31:03.647Z,99479.19
2022-11-30T01:33:31.509Z,99478.81
2022-11-30T01:36:02.558Z,99487.16
2022-11-30T01:38:33.758Z,99478.38
2022-11-30T01:41:01.746Z,99480.41
2022-11-30T01:43:42.612Z,99477.19
2022-11-30T01:46:25.542Z,99480.78
2022-11-30T01:49:00.633Z,99489.47
2022-11-30T01:51:37.016Z,99484.34
2022-11-30T01:54:06.946Z,99486.31
2022-11-30T01:56:35.055Z,99488.28
2022-11-30T01:59:03.158Z,99487.91
2022-11-30T02:01:31.492Z,99487.94
2022-11-30T02:04:04.603Z,99483.59
2022-11-30T02:06:34.243Z,99487.94
2022-11-30T02:09:02.482Z,99482.41
2022-11-30T02:11:30.559Z,99480.44
2022-11-30T02:14:09.399Z,99484.00
2022-11-30T02:16:47.661Z,99495.09
2022-11-30T02:19:43.329Z,99501.03
2022-11-30T02:22:24.930Z,99499.84
2022-11-30T02:25:06.552Z,99500.25
2022-11-30T02:27:50.782Z,99509.38
2022-11-30T02:30:21.387Z,99514.94
2022-11-30T02:32:55.400Z,99507.78
2022-11-30T02:35:29.463Z,99510.94
2022-11-30T02:37:59.896Z,99499.47
2022-11-30T02:40:27.810Z,99491.13
2022-11-30T02:42:58.585Z,99499.06
2022-11-30T02:45:35.515Z,99508.47
2022-11-30T02:48:10.384Z,99506.13
2022-11-30T02:50:42.060Z,99497.47
2022-11-30T02:53:11.373Z,99491.53
2022-11-30T02:55:39.208Z,99497.47
2022-11-30T02:58:07.269Z,99494.69
2022-11-30T03:00:36.556Z,99487.56
2022-11-30T03:03:04.492Z,99494.69
2022-11-30T03:05:32.362Z,99485.97
2022-11-30T03:08:00.216Z,99485.19
2022-11-30T03:10:28.174Z,99492.31
2022-11-30T03:12:58.867Z,99496.69
2022-11-30T03:15:27.037Z,99497.88
2022-11-30T03:17:56.203Z,99501.03
2022-11-30T03:20:24.059Z,99497.09
2022-11-30T03:22:51.851Z,99510.84
2022-11-30T03:25:19.721Z,99514.50
2022-11-30T03:27:47.526Z,99513.72
2022-11-30T03:30:15.757Z,99521.28
2022-11-30T03:32:43.952Z,99518.50
2022-11-30T03:35:13.268Z,99529.16
2022-11-30T03:37:41.135Z,99526.44
2022-11-30T03:40:10.105Z,99528.03
2022-11-30T03:42:38.232Z,99525.66
2022-11-30T03:45:07.481Z,99531.19
2022-11-30T03:47:35.273Z,99532.41
2022-11-30T03:50:03.091Z,99530.81
2022-11-30T03:52:32.278Z,99532.00
2022-11-30T03:55:00.314Z,99532.78
2022-11-30T03:57:28.178Z,99534.75
2022-11-30T03:59:56.226Z,99536.75
2022-11-30T04:02:24.131Z,99527.25
2022-11-30T04:04:51.991Z,99528.00
2022-11-30T04:07:19.929Z,99520.84
2022-11-30T04:09:49.207Z,99522.84
2022-11-30T04:12:17.045Z,99522.44
2022-11-30T04:14:45.155Z,99515.69
2022-11-30T04:17:13.400Z,99515.22
2022-11-30T04:19:41.212Z,99511.72
2022-11-30T04:22:09.037Z,99513.31
2022-11-30T04:24:36.877Z,99523.59
2022-11-30T04:27:06.184Z,99521.56
2022-11-30T04:29:34.196Z,99525.06
2022-11-30T04:32:02.169Z,99526.28
2022-11-30T04:34:31.563Z,99531.88
2022-11-30T04:37:00.537Z,99531.13
2022-11-30T04:39:28.627Z,99536.63
2022-11-30T04:41:56.628Z,99537.47
2022-11-30T04:44:25.872Z,99545.38
2022-11-30T04:46:53.845Z,99543.25
2022-11-30T04:49:21.690Z,99543.66
2022-11-30T04:51:49.563Z,99538.53
2022-11-30T04:54:17.405Z,99544.13
2022-11-30T04:56:45.299Z,99544.44
2022-11-30T04:59:13.130Z,99545.38
2022-11-30T05:01:42.495Z,99548.91
2022-11-30T05:04:10.346Z,99543.78
2022-11-30T05:06:38.212Z,99546.16
2022-11-30T05:09:06.404Z,99554.09
2022-11-30T05:11:34.362Z,99550.88
2022-11-30T05:14:02.371Z,99552.88
2022-11-30T05:16:30.702Z,99560.75
2022-11-30T05:18:59.940Z,99559.53
2022-11-30T05:21:27.821Z,99562.78
2022-11-30T05:23:55.668Z,99565.41
2022-11-30T05:26:23.774Z,99558.28
2022-11-30T05:28:51.821Z,99565.69
2022-11-30T05:31:19.745Z,99547.63
2022-11-30T05:33:51.583Z,99557.59
2022-11-30T05:36:21.377Z,99556.34
2022-11-30T05:38:49.374Z,99554.44
2022-11-30T05:41:17.319Z,99561.91
2022-11-30T05:43:45.370Z,99563.59
2022-11-30T05:46:13.188Z,99556.34
2022-11-30T05:48:41.013Z,99565.88
2022-11-30T05:51:10.823Z,99555.19
2022-11-30T05:53:40.488Z,99563.88
2022-11-30T05:56:10.600Z,99566.66
2022-11-30T05:58:38.685Z,99566.28
2022-11-30T06:01:07.180Z,99561.09
2022-11-30T06:03:36.831Z,99556.72
2022-11-30T06:06:04.667Z,99559.88
2022-11-30T06:08:32.687Z,99561.41
2022-11-30T06:11:03.075Z,99564.69
2022-11-30T06:13:32.517Z,99556.81
2022-11-30T06:16:01.035Z,99560.66
2022-11-30T06:18:29.448Z,99549.97
2022-11-30T06:21:01.659Z,99553.91
2022-11-30T06:23:29.663Z,99559.13
2022-11-30T06:25:57.546Z,99554.72
2022-11-30T06:28:27.113Z,99559.38
2022-11-30T06:30:59.583Z,99559.91
2022-11-30T06:33:27.797Z,99559.09
2022-11-30T06:35:55.605Z,99560.63
2022-11-30T06:38:24.289Z,99560.34
2022-11-30T06:40:52.087Z,99558.59
2022-11-30T06:43:20.042Z,99557.94
2022-11-30T06:45:49.349Z,99557.06
2022-11-30T06:48:17.199Z,99558.34
2022-11-30T06:50:49.952Z,99559.00
2022-11-30T06:53:18.103Z,99560.78
2022-11-30T06:55:45.985Z,99567.88
2022-11-30T06:58:13.818Z,99560.63
2022-11-30T07:00:42.823Z,99558.34
2022-11-30T07:03:12.919Z,99563.72
2022-11-30T07:05:44.196Z,99562.25
2022-11-30T07:08:12.217Z,99568.50
2022-11-30T07:10:41.690Z,99579.34
2022-11-30T07:13:12.125Z,99575.78
2022-11-30T07:15:39.841Z,99578.13
2022-11-30T07:18:08.138Z,99578.13
2022-11-30T07:20:37.891Z,99576.16
2022-11-30T07:23:19.850Z,99574.56
2022-11-30T07:26:05.451Z,99571.81
2022-11-30T07:28:33.607Z,99583.75
2022-11-30T07:31:01.535Z,99576.53
2022-11-30T07:33:29.875Z,99578.00
2022-11-30T07:35:59.432Z,99585.00
2022-11-30T07:38:27.458Z,99583.56
2022-11-30T07:40:55.295Z,99587.53
2022-11-30T07:43:23.208Z,99580.31
2022-11-30T07:45:54.747Z,99589.88
2022-11-30T07:48:23.402Z,99584.81
2022-11-30T07:51:04.935Z,99586.13
2022-11-30T07:54:01.358Z,99576.59
2022-11-30T07:56:29.649Z,99573.78
2022-11-30T07:58:59.551Z,99583.69
2022-11-30T08:01:29.345Z,99583.34
2022-11-30T08:03:58.302Z,99589.22
2022-11-30T08:06:27.885Z,99583.94
2022-11-30T08:08:58.941Z,99602.34
2022-11-30T08:11:31.120Z,99605.06
2022-11-30T08:13:58.947Z,99601.19
2022-11-30T08:16:28.581Z,99599.13
2022-11-30T08:18:57.326Z,99606.47
2022-11-30T08:21:25.614Z,99608.97
2022-11-30T08:23:56.075Z,99612.66
2022-11-30T08:26:25.997Z,99614.47
2022-11-30T08:28:56.172Z,99619.28
2022-11-30T08:31:26.009Z,99608.38
2022-11-30T08:33:57.600Z,99622.47
2022-11-30T08:36:26.727Z,99627.59
2022-11-30T08:38:55.049Z,99617.31
2022-11-30T08:41:23.646Z,99612.22
2022-11-30T08:43:53.141Z,99615.75
2022-11-30T08:49:21.426Z,99617.19
2022-11-30T08:54:42.420Z,99636.16
2022-11-30T08:57:10.428Z,99633.59
2022-11-30T08:59:38.426Z,99635.56
2022-11-30T09:02:07.773Z,99638.47
2022-11-30T09:04:35.773Z,99636.72
2022-11-30T09:07:04.279Z,99636.72
2022-11-30T09:09:32.653Z,99640.94
2022-11-30T09:12:00.565Z,99652.97
2022-11-30T09:14:29.589Z,99653.06
2022-11-30T09:16:57.427Z,99656.19
2022-11-30T09:19:27.262Z,99643.66
2022-11-30T09:21:55.155Z,99650.28
2022-11-30T09:24:23.014Z,99647.97
2022-11-30T09:26:51.236Z,99653.06
2022-11-30T09:29:19.127Z,99645.72
2022-11-30T09:31:46.930Z,99653.72
2022-11-30T09:34:14.816Z,99645.09
2022-11-30T09:36:44.150Z,99652.63
2022-11-30T09:39:12.895Z,99650.34
2022-11-30T09:42:06.008Z,99654.78
2022-11-30T09:44:45.933Z,99663.25
2022-11-30T09:47:33.586Z,99652.88
2022-11-30T09:50:04.822Z,99659.97
2022-11-30T09:52:38.482Z,99652.13
2022-11-30T09:55:10.787Z,99655.22
2022-11-30T09:57:47.011Z,99653.50
2022-11-30T10:00:17.807Z,99658.63
2022-11-30T10:02:46.843Z,99660.31
2022-11-30T10:05:16.625Z,99659.97
2022-11-30T10:08:06.044Z,99662.84
2022-11-30T10:10:40.281Z,99661.22
2022-11-30T10:13:27.869Z,99662.78
2022-11-30T10:16:08.521Z,99657.13
2022-11-30T10:18:48.047Z,99656.03
2022-11-30T10:21:27.933Z,99652.50
2022-11-30T10:24:11.788Z,99647.28
2022-11-30T10:26:43.458Z,99650.97
2022-11-30T10:29:19.197Z,99652.16
2022-11-30T10:31:49.685Z,99654.91
2022-11-30T10:34:20.305Z,99657.53
2022-11-30T10:36:54.367Z,99660.84
2022-11-30T10:39:29.636Z,99664.06
2022-11-30T10:42:05.218Z,99665.25
2022-11-30T10:44:39.538Z,99667.38
2022-11-30T10:47:14.807Z,99666.66
2022-11-30T10:49:49.356Z,99661.66
2022-11-30T10:52:24.049Z,99664.25
2022-11-30T10:55:02.257Z,99656.56
2022-11-30T10:57:34.152Z,99654.47
2022-11-30T11:00:06.464Z,99645.47
2022-11-30T11:02:41.449Z,99650.72
2022-11-30T11:05:21.712Z,99653.94
2022-11-30T11:07:52.766Z,99651.47
2022-11-30T11:10:28.603Z,99655.63
2022-11-30T11:12:57.140Z,99655.06
2022-11-30T11:15:26.822Z,99653.94
2022-11-30T11:18:12.750Z,99652.03
2022-11-30T11:20:42.636Z,99652.38
2022-11-30T11:23:22.764Z,99654.41
2022-11-30T11:25:54.151Z,99655.22
2022-11-30T11:28:24.487Z,99651.25
2022-11-30T11:30:55.348Z,99653.97
2022-11-30T11:33:25.343Z,99648.50
2022-11-30T11:35:54.544Z,99650.13
2022-11-30T11:38:28.529Z,99651.53
2022-11-30T11:41:00.849Z,99655.44
2022-11-30T11:43:30.649Z,99658.69
2022-11-30T11:46:01.919Z,99658.06
2022-11-30T11:48:34.779Z,99660.69
2022-11-30T11:51:07.060Z,99663.72
2022-11-30T11:53:51.541Z,99659.72
2022-11-30T11:56:27.054Z,99661.38
2022-11-30T11:58:59.861Z,99658.94
2022-11-30T12:01:50.368Z,99663.00
2022-11-30T12:04:37.388Z,99661.63
2022-11-30T12:07:18.051Z,99656.47
2022-11-30T12:09:59.263Z,99653.03
2022-11-30T12:12:33.687Z,99654.69
2022-11-30T12:15:12.100Z,99653.44
2022-11-30T12:17:52.032Z,99656.59
2022-11-30T12:20:26.910Z,99657.84
2022-11-30T12:23:12.655Z,99651.19
2022-11-30T12:25:48.803Z,99650.34
2022-11-30T12:28:25.407Z,99651.09
2022-11-30T12:31:12.060Z,99648.88
2022-11-30T12:34:00.192Z,99652.78
2022-11-30T12:36:38.127Z,99646.38
2022-11-30T12:39:10.119Z,99644.25
2022-11-30T12:41:50.623Z,99641.13
2022-11-30T12:44:28.759Z,99653.66
2022-11-30T12:47:04.401Z,99647.03
2022-11-30T12:49:44.852Z,99649.97
2022-11-30T12:52:29.823Z,99646.06
2022-11-30T12:55:05.031Z,99649.22
2022-11-30T12:57:39.497Z,99644.91
2022-11-30T13:00:17.149Z,99648.84
2022-11-30T13:03:03.796Z,99644.91
2022-11-30T13:05:36.553Z,99642.31
2022-11-30T13:08:11.927Z,99638.56
2022-11-30T13:10:44.178Z,99642.03
2022-11-30T13:13:15.526Z,99640.53
2022-11-30T13:15:46.393Z,99637.25
2022-11-30T13:18:19.225Z,99634.75
2022-11-30T13:20:52.922Z,99634.78
2022-11-30T13:23:31.509Z,99636.31
2022-11-30T13:26:08.420Z,99637.25
2022-11-30T13:28:56.626Z,99637.94
2022-11-30T13:31:36.207Z,99645.75
2022-11-30T13:34:24.529Z,99640.13
2022-11-30T13:37:07.804Z,99646.97
2022-11-30T13:39:49.772Z,99643.13
2022-11-30T13:42:34.946Z,99645.13
2022-11-30T13:45:39.541Z,99648.59
2022-11-30T13:48:32.883Z,99651.56
2022-11-30T13:51:06.923Z,99655.91
2022-11-30T13:53:40.541Z,99649.00
2022-11-30T13:56:33.633Z,99653.47
2022-11-30T13:59:45.550Z,99656.19
2022-11-30T14:02:59.095Z,99653.19
2022-11-30T14:05:44.205Z,99657.41
2022-11-30T14:08:32.636Z,99655.69
2022-11-30T14:11:38.275Z,99654.88
2022-11-30T14:14:47.039Z,99664.16
2022-11-30T14:17:26.922Z,99667.31
2022-11-30T14:20:03.487Z,99664.50
2022-11-30T14:22:41.688Z,99672.56
2022-11-30T14:25:17.929Z,99663.91
2022-11-30T14:27:56.567Z,99667.19
2022-11-30T14:30:33.630Z,99669.53
2022-11-30T14:33:19.378Z,99668.44
2022-11-30T14:35:57.981Z,99669.09
2022-11-30T14:38:32.762Z,99671.13
2022-11-30T14:41:05.633Z,99672.22
2022-11-30T14:43:38.542Z,99677.75
2022-11-30T14:46:18.850Z,99673.03
2022-11-30T14:49:05.258Z,99673.47
2022-11-30T14:51:38.815Z,99669.03
2022-11-30T14:54:23.616Z,99670.81
2022-11-30T14:57:03.983Z,99678.06
2022-11-30T14:59:47.380Z,99677.41
2022-11-30T15:02:24.886Z,99673.94
2022-11-30T15:04:59.735Z,99674.63
2022-11-30T15:07:32.774Z,99675.84
2022-11-30T15:10:12.361Z,99672.66
2022-11-30T15:12:45.956Z,99671.38
2022-11-30T15:15:21.257Z,99678.97
2022-11-30T15:17:56.206Z,99681.47
2022-11-30T15:20:32.455Z,99673.94
2022-11-30T15:23:05.350Z,99681.09
2022-11-30T15:25:42.976Z,99677.97
2022-11-30T15:28:19.898Z,99686.53
2022-11-30T15:30:58.558Z,99685.22
2022-11-30T15:33:38.096Z,99692.81
2022-11-30T15:36:31.356Z,99689.88
2022-11-30T15:39:06.653Z,99693.22
2022-11-30T15:41:40.872Z,99692.41
2022-11-30T15:44:26.242Z,99696.03
2022-11-30T15:47:01.414Z,99702.91
2022-11-30T15:49:36.273Z,99701.00
2022-11-30T15:52:18.194Z,99700.09
2022-11-30T15:54:54.008Z,99700.38
2022-11-30T15:57:59.355Z,99707.78
2022-11-30T16:00:33.281Z,99707.59
2022-11-30T16:03:10.618Z,99709.88
2022-11-30T16:05:57.105Z,99705.22
2022-11-30T16:08:30.378Z,99709.28
2022-11-30T16:11:08.020Z,99714.13
2022-11-30T16:13:42.777Z,99714.88
2022-11-30T16:16:23.988Z,99717.06
2022-11-30T16:18:56.911Z,99714.56
2022-11-30T16:21:29.850Z,99713.69
2022-11-30T16:24:02.688Z,99716.56
2022-11-30T16:26:50.623Z,99717.09
2022-11-30T16:29:25.809Z,99720.59
2022-11-30T16:31:58.790Z,99718.78
2022-11-30T16:34:31.669Z,99720.56
2022-11-30T16:37:04.691Z,99731.81
2022-11-30T16:39:37.951Z,99737.22
2022-11-30T16:42:12.490Z,99734.31
2022-11-30T16:44:46.729Z,99742.63
2022-11-30T16:47:19.793Z,99741.31
2022-11-30T16:49:52.630Z,99736.03
2022-11-30T16:52:25.447Z,99739.13
2022-11-30T16:54:58.232Z,99739.78
2022-11-30T16:57:31.052Z,99742.69
2022-11-30T17:00:06.151Z,99746.03
2022-11-30T17:02:43.042Z,99747.50
2022-11-30T17:05:16.508Z,99752.69
2022-11-30T17:07:49.456Z,99753.28
2022-11-30T17:10:23.052Z,99755.22
2022-11-30T17:12:55.912Z,99750.69
2022-11-30T17:15:30.243Z,99757.09
2022-11-30T17:18:03.119Z,99757.25
2022-11-30T17:20:37.470Z,99763.44
2022-11-30T17:23:10.355Z,99764.25
2022-11-30T17:25:43.204Z,99759.38
2022-11-30T17:28:16.088Z,99768.97
2022-11-30T17:30:50.338Z,99769.88
2022-11-30T17:33:23.235Z,99769.22
2022-11-30T17:35:58.618Z,99764.69
2022-11-30T17:38:31.449Z,99762.38
2022-11-30T17:41:05.266Z,99760.94
2022-11-30T17:43:38.222Z,99769.03
2022-11-30T17:46:15.617Z,99758.72
2022-11-30T17:48:49.348Z,99750.19
2022-11-30T17:51:22.269Z,99758.78
2022-11-30T17:53:55.196Z,99761.69
2022-11-30T17:56:28.113Z,99756.31
2022-11-30T17:59:01.023Z,99760.31
2022-11-30T18:01:35.603Z,99758.53
2022-11-30T18:04:09.204Z,99767.47
2022-11-30T18:06:42.016Z,99767.88
2022-11-30T18:09:14.832Z,99763.84
2022-11-30T18:11:48.000Z,99772.19
2022-11-30T18:14:24.005Z,99770.66
2022-11-30T18:17:06.908Z,99768.31
2022-11-30T18:19:39.829Z,99774.44
2022-11-30T18:22:12.668Z,99790.25
2022-11-30T18:24:45.889Z,99788.41
2022-11-30T18:27:18.904Z,99786.84
2022-11-30T18:29:52.231Z,99789.00
2022-11-30T18:32:26.408Z,99795.22
2022-11-30T18:34:59.418Z,99793.81
2022-11-30T18:37:34.472Z,99796.59
2022-11-30T18:40:08.619Z,99794.13
2022-11-30T18:42:41.457Z,99799.84
2022-11-30T18:45:14.256Z,99798.94
2022-11-30T18:47:48.563Z,99802.84
2022-11-30T18:50:21.418Z,99801.00
2022-11-30T18:52:54.774Z,99797.06
2022-11-30T18:55:27.800Z,99795.94
2022-11-30T18:58:01.710Z,99799.22
2022-11-30T19:00:34.539Z,99809.28
2022-11-30T19:03:08.798Z,99800.03
2022-11-30T19:05:41.685Z,99797.97
2022-11-30T19:08:15.542Z,99799.03
2022-11-30T19:10:48.546Z,99806.16
2022-11-30T19:13:21.440Z,99794.84
2022-11-30T19:15:54.284Z,99799.03
2022-11-30T19:18:28.583Z,99800.78
2022-11-30T19:21:01.402Z,99810.16
2022-11-30T19:23:34.252Z,99808.00
2022-11-30T19:26:08.519Z,99803.22
2022-11-30T19:28:43.668Z,99796.72
2022-11-30T19:31:18.476Z,99807.72
2022-11-30T19:33:55.385Z,99790.44
2022-11-30T19:36:29.658Z,99805.53
2022-11-30T19:39:02.618Z,99811.94
2022-11-30T19:41:35.528Z,99805.25
2022-11-30T19:44:10.481Z,99815.63
2022-11-30T19:46:43.437Z,99812.31
2022-11-30T19:49:17.844Z,99813.16
2022-11-30T19:51:50.787Z,99819.50
2022-11-30T19:54:23.729Z,99827.16
2022-11-30T19:56:58.094Z,99826.31
2022-11-30T19:59:30.966Z,99828.13
2022-11-30T20:02:03.967Z,99821.88
2022-11-30T20:04:38.435Z,99824.22
2022-11-30T20:07:11.283Z,99831.97
2022-11-30T20:09:44.256Z,99828.75
2022-11-30T20:12:17.288Z,99828.63
2022-11-30T20:14:51.037Z,99819.69
2022-11-30T20:17:24.007Z,99829.38
2022-11-30T20:19:58.308Z,99819.38
2022-11-30T20:22:31.424Z,99830.38
2022-11-30T20:25:04.502Z,99828.09
2022-11-30T20:27:37.444Z,99841.84
2022-11-30T20:30:11.017Z,99835.56
2022-11-30T20:32:43.966Z,99837.66
2022-11-30T20:35:18.319Z,99841.72
2022-11-30T20:37:51.183Z,99833.69
2022-11-30T20:40:24.060Z,99831.28
2022-11-30T20:42:56.947Z,99836.31
2022-11-30T20:45:32.348Z,99848.25
2022-11-30T20:48:05.283Z,99842.75
2022-11-30T20:50:39.818Z,99840.22
2022-11-30T20:53:12.714Z,99844.78
2022-11-30T20:55:45.818Z,99847.75
2022-11-30T20:58:18.767Z,99851.84
2022-11-30T21:00:51.651Z,99847.38
2022-11-30T21:03:24.553Z,99842.94
2022-11-30T21:05:58.717Z,99847.50
2022-11-30T21:08:32.024Z,99844.44
2022-11-30T21:11:06.314Z,99848.41
2022-11-30T21:13:40.078Z,99848.53
2022-11-30T21:16:13.514Z,99851.06
2022-11-30T21:18:47.345Z,99854.31
2022-11-30T21:21:24.095Z,99862.19
2022-11-30T21:23:59.947Z,99857.28
2022-11-30T21:26:34.942Z,99859.19
2022-11-30T21:29:11.198Z,99853.47
2022-11-30T21:31:44.900Z,99855.53
2022-11-30T21:34:18.388Z,99855.44
2022-11-30T21:36:53.434Z,99855.81
2022-11-30T21:39:26.557Z,99851.81
2022-11-30T21:41:59.497Z,99856.97
2022-11-30T21:44:32.340Z,99849.38
2022-11-30T21:47:05.287Z,99849.56
2022-11-30T21:49:38.085Z,99853.47
2022-11-30T21:52:12.716Z,99850.75
2022-11-30T21:54:45.633Z,99853.34
2022-11-30T21:57:18.595Z,99847.63
2022-11-30T21:59:51.481Z,99848.22
2022-11-30T22:02:24.453Z,99848.72
2022-11-30T22:04:57.327Z,99848.22
2022-11-30T22:07:39.147Z,99847.94
2022-11-30T22:10:32.844Z,99853.09
2022-11-30T22:13:05.699Z,99854.63
2022-11-30T22:15:38.805Z,99850.09
2022-11-30T22:18:11.716Z,99861.06
2022-11-30T22:20:44.614Z,99856.88
2022-11-30T22:23:18.988Z,99858.97
2022-11-30T22:25:52.679Z,99862.69
2022-11-30T22:28:25.699Z,99865.22
2022-11-30T22:31:03.551Z,99865.53
2022-11-30T22:33:38.082Z,99860.03
2022-11-30T22:36:14.917Z,99855.44
2022-11-30T22:38:54.462Z,99862.19
2022-11-30T22:41:28.718Z,99869.66
2022-11-30T22:44:02.618Z,99863.38
2022-11-30T22:46:37.802Z,99868.31
2022-11-30T22:49:19.954Z,99858.25
2022-11-30T22:51:53.874Z,99865.41
2022-11-30T22:54:28.312Z,99868.91
2022-11-30T22:57:01.173Z,99866.31
2022-11-30T22:59:34.023Z,99858.69
2022-11-30T23:02:07.923Z,99861.50
2022-11-30T23:04:43.721Z,99859.97
2022-11-30T23:07:16.590Z,99859.47
2022-11-30T23:09:51.074Z,99853.94
2022-11-30T23:12:50.955Z,99854.59
2022-11-30T23:15:17.095Z,99846.03
2022-11-30T23:17:49.974Z,99845.66
2022-11-30T23:20:22.992Z,99846.19
2022-11-30T23:22:55.855Z,99856.41
2022-11-30T23:25:30.416Z,99855.97
2022-11-30T23:28:03.317Z,99852.78
2022-11-30T23:30:36.177Z,99849.91
2022-11-30T23:33:10.302Z,99848.44
2022-11-30T23:35:44.493Z,99850.13
2022-11-30T23:38:17.346Z,99853.44
2022-11-30T23:40:51.637Z,99854.03
2022-11-30T23:43:24.676Z,99845.44
2022-11-30T23:45:57.538Z,99851.03
2022-11-30T23:48:30.351Z,99856.28
2022-11-30T23:51:03.357Z,99850.09
2022-11-30T23:53:36.216Z,99850.25
2022-11-30T23:56:14.166Z,99845.44
2022-11-30T23:58:47.520Z,99852.72
